METAR AND TAF INFORMATION
METAR FOR UAAA
ADDS - METARS form results

(1844 UTC 21 June 2021)
Data provider http://aviationweather.gov/metar/data/
 
METAR text: UAAA 211842Z 29006MPS 9999 BKN050CB OVC100 24/00 Q1011 R23L/CLRD65 NOSIG
Conditions at: UAAA (ALMA-ATA , KZ) observed 1842 UTC 21 June 2021
Temperature: 24.0°C (75°F)
Dewpoint: 0.0°C (32°F) [RH = 20%]
Pressure (altimeter): 29.85 inches Hg (1011.0 mb)
Winds: from the WNW (290 degrees) at 14 MPH (12 knots; 6.2 m/s)
Visibility: 6 or more miles (10+ km)
Ceiling: 5000 feet AGL
Clouds: broken clouds at 5000 feet AGL
overcast cloud deck at 10000 feet AGL
Weather: no significant weather observed at this time

METAR text: UAAA 211830Z 24004MPS 9999 BKN050CB OVC100 24/M00 Q1011 R23L/CLRD65 NOSIG
Conditions at: UAAA (ALMA-ATA , KZ) observed 1830 UTC 21 June 2021
Temperature: 24.0°C (75°F)
Dewpoint: 0.0°C (32°F) [RH = 20%]
Pressure (altimeter): 29.85 inches Hg (1011.0 mb)
Winds: from the WSW (240 degrees) at 9 MPH (8 knots; 4.1 m/s)
Visibility: 6 or more miles (10+ km)
Ceiling: 5000 feet AGL
Clouds: broken clouds at 5000 feet AGL
overcast cloud deck at 10000 feet AGL
Weather: no significant weather observed at this time

METAR text: UAAA 211800Z 23004MPS 9999 SCT050CB BKN100 25/M01 Q1010 R23L/CLRD65 NOSIG
Conditions at: UAAA (ALMA-ATA , KZ) observed 1800 UTC 21 June 2021
Temperature: 25.0°C (77°F)
Dewpoint: -1.0°C (30°F) [RH = 18%]
Pressure (altimeter): 29.82 inches Hg (1010.0 mb)
Winds: from the SW (230 degrees) at 9 MPH (8 knots; 4.1 m/s)
Visibility: 6 or more miles (10+ km)
Ceiling: 10000 feet AGL
Clouds: scattered clouds at 5000 feet AGL
broken clouds at 10000 feet AGL
Weather: no significant weather observed at this time

Forecast for: UAAA (ALMA-ATA , KZ)
Text: TAF UAAA 211700Z 2118/2218 22003G09MPS 9999 BKN050CB BKN100 TX22/2210Z TN12/2201Z
Forecast period: 1800 UTC 21 June 2021 to 1800 UTC 22 June 2021
Forecast type: FROM: standard forecast or significant change
Winds: from the SW (220 degrees) at 7 MPH (6 knots; 3.1 m/s)
gusting to 20 MPH (17 knots; 8.7 m/s)
Visibility: 6 or more miles (10+ km)
Ceiling: 5000 feet AGL
Clouds: broken clouds at 5000 feet AGL
broken clouds at 10000 feet AGL
Weather: no significant weather forecast for this period
Text: TEMPO 2118/2122 27008G18MPS 3000 TSRA BLDU BKN020CB OVC100
Forecast period: 1800 to 2200 UTC 21 June 2021
Forecast type: TEMPORARY: The following changes expected for less than half the time period
Winds: from the W (270 degrees) at 18 MPH (16 knots; 8.2 m/s)
gusting to 40 MPH (35 knots; 18.0 m/s)
Visibility: 1.86 miles (2.99 km)
Ceiling: 2000 feet AGL
Clouds: broken clouds at 2000 feet AGL
overcast cloud deck at 10000 feet AGL
Weather: TSRA BLDU  (rain associated with thunderstorm(s), blowing dust)
Text: TEMPO 2122/2206 VRB08G16MPS 3100 -TSRA SQ BKN011CB OVC030
Forecast period: 2200 UTC 21 June 2021 to 0600 UTC 22 June 2021
Forecast type: TEMPORARY: The following changes expected for less than half the time period
Winds: variable direction winds at 18 MPH (16 knots; 8.2 m/s)
gusting to 36 MPH (31 knots; 15.9 m/s)
Visibility: 1.93 miles (3.11 km)
Ceiling: 1100 feet AGL
Clouds: broken clouds at 1100 feet AGL
overcast cloud deck at 3000 feet AGL
Weather: -TSRA SQ  (light rain associated with thunderstorm(s), squal)

 AIRPORT MAP

 RUNWAY INFORMATION

 AIRPORT FREQUENCIES
Type APP Name APP Frequency 131.6 MHZ
Type ATIS Name ATIS Frequency 129.8 MHZ
Type GCA Name RADAR Frequency 120.8 MHZ
Type GND Name GND Frequency 121.7 MHZ
Type TWR Name TWR Frequency 119.4 MHZ

 AIRPORT NEAR NAVIGATION AIDS
Type NDB Name Almaty Frequency 443 KHZ
Type VOR-DME Name Almaty Frequency 112300 KHZ
Type NDB Name Almaty Frequency 415 KHZ



2018 Air Astana Virtual Airline